KCDC/CDC METAR and TAF weather

Enter ICAO airport designator
Station Type Date Time Source
KCDC METAR 2022/11/30 09:53 UTC NOAA

KCDC 300953Z AUTO 13003KT 10SM CLR M07/M13 A3006 RMK AO2 SLP198 T10721128


Station Type Date Time Source
KCDC Decoded METAR 2022/11/30 09:53 UTC NOAA

CEDAR CITY MUN AIRPORT, UT, United States (KCDC) 37-42N 113-06W 1714M
Nov 30, 2022 - 04:53 AM EST / 2022.11.30 0953 UTC
Wind: from the SE (130 degrees) at 3 MPH (3 KT):0
Visibility: 10 mile(s):0
Sky conditions: clear
Temperature: 19.0 F (-7.2 C)
Dew Point: 9.0 F (-12.8 C)
Relative Humidity: 64%
Pressure (altimeter): 30.06 in. Hg (1017 hPa)
ob: KCDC 300953Z AUTO 13003KT 10SM CLR M07/M13 A3006 RMK AO2 SLP198 T10721128
cycle: 10

Station Type Date Time Source
KCDC TAF 2022/11/30 06:27 UTC NOAA

TAF KCDC 300524Z 3006/0106 VRB04KT P6SM FEW250
FM301700 21012G19KT P6SM FEW250

Example: see airport list